Time;durP1;ratioP1;P1;durP2;ratioP2;P2;SDS_P1;SDS_P2;PMS_P1;PMS_P2;Temp;Humidity;BMP_temperature;BMP_pressure;BME280_temperature;BME280_humidity;BME280_pressure;Samples;Min_cycle;Max_cycle;Signal;HPM_P1;HPM_P2
2023/04/14 00:01:04;;;;;;;0.22;0.22;;;4.00;99.90;;;;;;5058578;28;20036;-86
2023/04/14 00:03:29;;;;;;;0.00;0.00;;;3.60;99.90;;;;;;5076491;28;20060;-86
2023/04/14 00:05:55;;;;;;;0.00;0.00;;;3.50;75.10;;;;;;5076685;28;20044;-86
2023/04/14 00:08:21;;;;;;;0.00;0.00;;;4.30;16.80;;;;;;5076235;28;20037;-86
2023/04/14 00:10:46;;;;;;;0.03;0.03;;;4.80;1.00;;;;;;5075075;28;20059;-86
2023/04/14 00:13:12;;;;;;;0.00;0.00;;;3.40;99.90;;;;;;5074324;28;20505;-86
2023/04/14 00:15:40;;;;;;;0.00;0.00;;;3.40;99.90;;;;;;5062773;28;20041;-86
2023/04/14 00:18:06;;;;;;;0.10;0.10;;;3.30;99.90;;;;;;5056469;28;20061;-86
2023/04/14 00:20:34;;;;;;;0.00;0.00;;;3.20;99.90;;;;;;5056128;28;20414;-85
2023/04/14 00:23:00;;;;;;;0.00;0.00;;;3.10;99.90;;;;;;5056713;28;20143;-85
2023/04/14 00:25:26;;;;;;;0.13;0.13;;;3.00;1.00;;;;;;5055922;28;20543;-87
2023/04/14 00:27:51;;;;;;;1.02;0.70;;;2.90;1.00;;;;;;5068654;28;20036;-86
2023/04/14 00:30:17;;;;;;;0.00;0.00;;;2.90;99.90;;;;;;5077092;28;20048;-85
2023/04/14 00:32:42;;;;;;;0.00;0.00;;;2.80;99.90;;;;;;5076478;28;20093;-86
2023/04/14 00:35:08;;;;;;;0.00;0.00;;;2.80;99.90;;;;;;5077028;28;20044;-86
2023/04/14 00:37:34;;;;;;;0.00;0.00;;;2.70;99.90;;;;;;5058406;28;20077;-85
2023/04/14 00:40:00;;;;;;;0.50;0.47;;;2.50;99.90;;;;;;5076949;28;20048;-87
2023/04/14 00:42:26;;;;;;;0.00;0.00;;;2.90;99.90;;;;;;5075548;28;20056;-86
2023/04/14 00:44:51;;;;;;;0.00;0.00;;;2.40;99.90;;;;;;5074670;28;20044;-85
2023/04/14 00:47:17;;;;;;;0.00;0.00;;;2.30;99.90;;;;;;5075995;28;20098;-86
2023/04/14 00:49:43;;;;;;;9.70;2.15;;;2.30;1.00;;;;;;5074936;28;20477;-86
2023/04/14 00:52:10;;;;;;;0.00;0.00;;;2.30;1.00;;;;;;5076906;28;20100;-87
2023/04/14 00:54:36;;;;;;;0.50;0.50;;;2.20;1.00;;;;;;5074632;28;20542;-86
2023/04/14 00:57:04;;;;;;;0.00;0.00;;;2.10;99.90;;;;;;5074299;28;20413;-86
2023/04/14 00:59:30;;;;;;;0.00;0.00;;;2.00;99.90;;;;;;5076577;28;20048;-86
2023/04/14 01:01:56;;;;;;;0.57;0.57;;;1.80;99.90;;;;;;5076531;28;20162;-86
2023/04/14 01:04:22;;;;;;;0.00;0.00;;;1.70;1.00;;;;;;5076095;28;20068;-86
2023/04/14 01:06:48;;;;;;;0.00;0.00;;;1.70;1.00;;;;;;5075882;28;20114;-86
2023/04/14 01:09:15;;;;;;;0.00;0.00;;;1.60;1.00;;;;;;5076074;28;20052;-85
2023/04/14 01:12:25;;;;;;;0.00;0.00;;;1.60;9.00;;;;;;5076594;28;20057;-85
2023/04/14 01:15:21;;;;;;;2.88;0.38;;;1.60;74.80;;;;;;5075235;28;20087;-86
2023/04/14 01:18:12;;;;;;;0.00;0.00;;;1.60;92.50;;;;;;5076096;28;20048;-85
2023/04/14 01:20:46;;;;;;;0.00;0.00;;;1.70;99.90;;;;;;5074996;28;20040;-85
2023/04/14 01:23:24;;;;;;;0.00;0.00;;;1.60;99.90;;;;;;5074233;28;20482;-85
2023/04/14 01:26:02;;;;;;;0.20;0.20;;;1.60;99.90;;;;;;5076222;28;20047;-87
2023/04/14 01:29:00;;;;;;;0.28;0.28;;;1.60;99.90;;;;;;5076570;28;20053;-87
2023/04/14 01:31:30;;;;;;;0.00;0.00;;;1.60;99.90;;;;;;5074481;28;20064;-86
2023/04/14 01:34:03;;;;;;;0.10;0.10;;;1.60;99.90;;;;;;5074592;28;20044;-85
2023/04/14 01:36:59;;;;;;;0.00;0.00;;;1.60;99.90;;;;;;5075582;28;20044;-86
2023/04/14 01:39:35;;;;;;;0.00;0.00;;;2.00;99.90;;;;;;5053506;28;20383;-84
2023/04/14 01:42:06;;;;;;;0.22;0.22;;;1.90;99.90;;;;;;5076523;28;20044;-85
2023/04/14 01:44:33;;;;;;;0.00;0.00;;;1.90;99.90;;;;;;5071292;28;20037;-85
2023/04/14 01:47:06;;;;;;;0.00;0.00;;;2.00;99.90;;;;;;5055939;28;20072;-86
2023/04/14 01:49:34;;;;;;;2.65;1.55;;;1.10;99.90;;;;;;5056942;28;20076;-84
2023/04/14 01:52:02;;;;;;;0.10;0.10;;;2.10;99.90;;;;;;5055499;28;20405;-86
2023/04/14 01:54:30;;;;;;;0.47;0.35;;;2.20;99.90;;;;;;5061633;28;20028;-86
2023/04/14 01:56:59;;;;;;;0.10;0.10;;;2.20;99.90;;;;;;5073203;28;20058;-85
2023/04/14 01:59:27;;;;;;;0.00;0.00;;;2.30;99.90;;;;;;5076377;28;20068;-85
2023/04/14 02:01:53;;;;;;;0.10;0.10;;;2.40;99.90;;;;;;5075515;28;20033;-86
2023/04/14 02:04:24;;;;;;;0.10;0.10;;;2.50;99.90;;;;;;5075426;28;20057;-84
2023/04/14 02:06:51;;;;;;;0.17;0.17;;;2.80;99.90;;;;;;5075176;28;20060;-86
2023/04/14 02:09:22;;;;;;;0.00;0.00;;;3.00;99.90;;;;;;5064183;28;20052;-86
2023/04/14 02:11:50;;;;;;;0.43;0.43;;;3.20;99.90;;;;;;5057205;28;20601;-85
2023/04/14 02:14:17;;;;;;;0.00;0.00;;;3.20;99.90;;;;;;5039832;28;20084;-85
2023/04/14 02:16:44;;;;;;;0.08;0.08;;;3.80;99.90;;;;;;5058292;28;20076;-86
2023/04/14 02:19:11;;;;;;;0.00;0.00;;;3.20;99.90;;;;;;5057867;28;20104;-85
2023/04/14 02:21:38;;;;;;;0.00;0.00;;;3.10;99.90;;;;;;5056044;28;20076;-86
2023/04/14 02:24:03;;;;;;;0.25;0.25;;;3.00;99.90;;;;;;5056570;28;20116;-86
2023/04/14 02:26:31;;;;;;;0.88;0.82;;;3.00;99.90;;;;;;5057476;28;20076;-84
2023/04/14 02:29:08;;;;;;;0.47;0.47;;;3.00;99.90;;;;;;5057990;28;20163;-85
2023/04/14 02:31:38;;;;;;;0.08;0.08;;;2.90;99.90;;;;;;5057908;28;20052;-86
2023/04/14 02:34:07;;;;;;;0.00;0.00;;;2.90;99.90;;;;;;5057469;28;20499;-85
2023/04/14 02:36:38;;;;;;;0.00;0.00;;;2.90;99.90;;;;;;5056364;28;20056;-86
2023/04/14 02:39:10;;;;;;;0.25;0.25;;;2.90;99.90;;;;;;5039323;28;20083;-85
2023/04/14 02:41:39;;;;;;;0.00;0.00;;;2.90;99.90;;;;;;5057740;28;20090;-85
2023/04/14 02:44:16;;;;;;;0.00;0.00;;;4.10;99.90;;;;;;5057780;28;20045;-86
2023/04/14 02:46:52;;;;;;;0.38;0.38;;;3.00;99.90;;;;;;5058037;28;20049;-86
2023/04/14 02:49:20;;;;;;;1.75;1.20;;;3.10;99.90;;;;;;5057485;28;20049;-85
2023/04/14 02:51:47;;;;;;;0.00;0.00;;;3.20;99.90;;;;;;5057633;28;20394;-86
2023/04/14 02:54:15;;;;;;;1.55;1.05;;;3.20;99.90;;;;;;5057917;28;20055;-86
2023/04/14 02:56:41;;;;;;;0.80;0.57;;;3.30;83.00;;;;;;5057488;28;20068;-86
2023/04/14 02:59:07;;;;;;;0.00;0.00;;;3.30;31.00;;;;;;5057041;28;20080;-86
2023/04/14 03:01:33;;;;;;;0.10;0.10;;;3.30;1.00;;;;;;5057874;28;20041;-86
2023/04/14 03:04:00;;;;;;;0.00;0.00;;;3.30;1.00;;;;;;5057580;28;20048;-86
2023/04/14 03:06:27;;;;;;;0.00;0.00;;;3.30;1.00;;;;;;5056672;28;20049;-85
2023/04/14 03:08:54;;;;;;;0.08;0.08;;;3.40;1.00;;;;;;5056747;28;20442;-84
2023/04/14 03:11:21;;;;;;;1.98;0.90;;;3.50;6.70;;;;;;5056100;28;20513;-86
2023/04/14 03:13:51;;;;;;;0.00;0.00;;;3.60;1.00;;;;;;5055699;28;20047;-86
2023/04/14 03:16:20;;;;;;;0.15;0.15;;;3.70;95.80;;;;;;5056757;28;20059;-85
2023/04/14 03:18:48;;;;;;;0.00;0.00;;;3.70;72.60;;;;;;5056938;28;20053;-86
2023/04/14 03:21:17;;;;;;;0.00;0.00;;;3.70;2.60;;;;;;5057872;28;20507;-85
2023/04/14 03:23:48;;;;;;;0.00;0.00;;;3.60;99.90;;;;;;5055688;28;20056;-86
2023/04/14 03:26:17;;;;;;;0.00;0.00;;;3.60;99.90;;;;;;5056188;28;20052;-86
2023/04/14 03:28:47;;;;;;;0.00;0.00;;;3.50;99.90;;;;;;5055971;28;20110;-86
2023/04/14 03:31:15;;;;;;;0.10;0.10;;;3.40;99.90;;;;;;5057106;28;20049;-85
2023/04/14 03:33:43;;;;;;;0.00;0.00;;;3.30;99.90;;;;;;5057301;28;20044;-85
2023/04/14 03:36:11;;;;;;;0.00;0.00;;;3.20;99.90;;;;;;5056747;28;20049;-86
2023/04/14 03:38:38;;;;;;;0.00;0.00;;;3.20;99.90;;;;;;5055667;28;20040;-86
2023/04/14 03:41:06;;;;;;;0.00;0.00;;;3.10;99.90;;;;;;5055143;28;20049;-86
2023/04/14 03:43:35;;;;;;;0.20;0.20;;;3.10;99.90;;;;;;5057477;28;20063;-85
2023/04/14 03:46:04;;;;;;;0.00;0.00;;;3.20;99.90;;;;;;5056893;28;20076;-85
2023/04/14 03:48:35;;;;;;;0.20;0.20;;;3.20;99.90;;;;;;5057638;28;20091;-86
2023/04/14 03:51:02;;;;;;;0.00;0.00;;;3.20;99.90;;;;;;5056570;28;20089;-86
2023/04/14 03:53:30;;;;;;;0.00;0.00;;;3.00;99.90;;;;;;5058188;28;20037;-86
2023/04/14 03:55:58;;;;;;;4.95;1.75;;;3.00;99.90;;;;;;5058026;28;20049;-86
2023/04/14 03:58:27;;;;;;;0.20;0.20;;;3.00;99.90;;;;;;5057595;28;20051;-86
2023/04/14 04:00:54;;;;;;;0.00;0.00;;;3.00;99.90;;;;;;5061088;28;20056;-86
2023/04/14 04:03:21;;;;;;;0.13;0.13;;;3.10;99.90;;;;;;5064898;28;20143;-85
2023/04/14 04:05:47;;;;;;;0.00;0.00;;;2.90;99.90;;;;;;5065999;28;20077;-85
2023/04/14 04:08:13;;;;;;;0.80;0.57;;;2.80;99.90;;;;;;5067017;28;20045;-85
2023/04/14 04:10:41;;;;;;;0.00;0.00;;;2.70;99.90;;;;;;5050029;28;20060;-86
2023/04/14 04:13:11;;;;;;;0.05;0.05;;;2.50;99.90;;;;;;5066701;28;20181;-86
2023/04/14 04:15:38;;;;;;;0.00;0.00;;;2.40;99.90;;;;;;5069750;28;20509;-85
2023/04/14 04:18:06;;;;;;;0.50;0.50;;;2.40;99.90;;;;;;5081104;28;20090;-85
2023/04/14 04:20:35;;;;;;;0.00;0.00;;;2.30;99.90;;;;;;5085409;28;20062;-86
2023/04/14 04:23:02;;;;;;;6.72;1.13;;;2.20;99.90;;;;;;5085510;28;20128;-84
2023/04/14 04:25:31;;;;;;;0.00;0.00;;;2.10;99.90;;;;;;5090530;28;20029;-85
2023/04/14 04:28:00;;;;;;;0.00;0.00;;;2.00;99.90;;;;;;5092430;28;20036;-85
2023/04/14 04:30:29;;;;;;;0.00;0.00;;;1.90;99.90;;;;;;5093178;28;20059;-86
2023/04/14 04:32:55;;;;;;;0.00;0.00;;;2.10;99.90;;;;;;5092776;28;20297;-86
2023/04/14 04:35:23;;;;;;;0.00;0.00;;;1.70;99.90;;;;;;5092585;28;20086;-85
2023/04/14 04:37:49;;;;;;;0.00;0.00;;;1.60;99.90;;;;;;5092762;28;20111;-85
2023/04/14 04:40:15;;;;;;;0.00;0.00;;;1.50;99.90;;;;;;5091964;28;20041;-86
2023/04/14 04:42:42;;;;;;;0.00;0.00;;;1.60;99.90;;;;;;5057955;28;20059;-85
2023/04/14 04:45:09;;;;;;;0.00;0.00;;;1.60;99.90;;;;;;5075411;28;20371;-85
2023/04/14 04:47:35;;;;;;;0.10;0.10;;;1.70;99.90;;;;;;5075565;28;20048;-85
2023/04/14 04:50:00;;;;;;;0.00;0.00;;;1.60;99.90;;;;;;5076449;28;20048;-85
2023/04/14 04:52:26;;;;;;;6.35;0.73;;;1.70;99.90;;;;;;5074921;28;20083;-86
2023/04/14 04:54:52;;;;;;;0.00;0.00;;;1.70;99.90;;;;;;5075600;28;20036;-86
2023/04/14 04:57:20;;;;;;;0.00;0.00;;;1.80;99.90;;;;;;5072358;28;20044;-84
2023/04/14 04:59:46;;;;;;;0.20;0.20;;;2.00;99.90;;;;;;5074031;28;20044;-85
2023/04/14 05:02:12;;;;;;;0.38;0.25;;;2.10;99.90;;;;;;5072132;28;20671;-84
2023/04/14 05:04:38;;;;;;;0.00;0.00;;;2.10;99.90;;;;;;5073207;28;20045;-85
2023/04/14 05:07:03;;;;;;;0.20;0.20;;;2.20;99.90;;;;;;5073371;28;20098;-85
2023/04/14 05:09:29;;;;;;;0.45;0.45;;;2.80;99.90;;;;;;5071105;28;20099;-85
2023/04/14 05:11:56;;;;;;;0.05;0.05;;;2.10;99.90;;;;;;5071560;28;20882;-84
2023/04/14 05:14:22;;;;;;;0.00;0.00;;;2.10;99.90;;;;;;5070885;28;20062;-85
2023/04/14 05:16:47;;;;;;;0.00;0.00;;;2.00;99.90;;;;;;5071723;28;20052;-85
2023/04/14 05:19:13;;;;;;;0.10;0.10;;;2.90;99.90;;;;;;5071549;28;20071;-85
2023/04/14 05:21:39;;;;;;;0.00;0.00;;;1.90;99.90;;;;;;5071899;28;20037;-86
2023/04/14 05:24:07;;;;;;;0.30;0.30;;;1.90;99.90;;;;;;5054227;28;20044;-84
2023/04/14 05:26:33;;;;;;;0.20;0.20;;;2.00;99.90;;;;;;5054893;28;20059;-85
2023/04/14 05:28:59;;;;;;;2.10;1.35;;;2.00;99.90;;;;;;5074138;28;20119;-84
2023/04/14 05:31:25;;;;;;;0.88;0.80;;;2.70;99.90;;;;;;5072826;28;20072;-85
2023/04/14 05:33:50;;;;;;;0.10;0.10;;;2.10;99.90;;;;;;5077162;28;20056;-86
2023/04/14 05:36:16;;;;;;;0.00;0.00;;;2.20;99.90;;;;;;5075270;28;20048;-85
2023/04/14 05:38:42;;;;;;;0.10;0.10;;;2.20;99.90;;;;;;5067864;28;20040;-84
2023/04/14 05:41:08;;;;;;;0.08;0.08;;;2.20;99.90;;;;;;5067219;28;20049;-85
2023/04/14 05:43:34;;;;;;;0.45;0.45;;;2.20;99.90;;;;;;5065030;28;20037;-85
2023/04/14 05:46:00;;;;;;;0.25;0.25;;;2.30;99.90;;;;;;5066673;28;20547;-86
2023/04/14 05:48:29;;;;;;;0.08;0.08;;;2.20;99.90;;;;;;5067509;28;20446;-85
2023/04/14 05:50:55;;;;;;;0.00;0.00;;;2.30;99.90;;;;;;5066502;28;20520;-85
2023/04/14 05:53:21;;;;;;;0.00;0.00;;;2.20;99.90;;;;;;5067600;28;20041;-85
2023/04/14 05:55:47;;;;;;;0.35;0.35;;;2.20;99.90;;;;;;5068317;28;20041;-85
2023/04/14 05:58:13;;;;;;;0.00;0.00;;;3.20;99.90;;;;;;5067663;28;20409;-84
2023/04/14 06:00:39;;;;;;;0.25;0.25;;;2.30;99.90;;;;;;5068842;28;20195;-84
2023/04/14 06:03:05;;;;;;;0.80;0.80;;;2.40;99.90;;;;;;5069373;28;20401;-85
2023/04/14 06:05:33;;;;;;;0.08;0.08;;;2.50;99.90;;;;;;5068420;28;20044;-84
2023/04/14 06:07:59;;;;;;;0.28;0.28;;;2.60;99.90;;;;;;5070838;28;20493;-84
2023/04/14 06:10:24;;;;;;;0.00;0.00;;;2.80;99.90;;;;;;5069488;28;20046;-85
2023/04/14 06:12:50;;;;;;;0.63;0.63;;;2.90;99.90;;;;;;5070625;28;20045;-85
2023/04/14 06:15:16;;;;;;;0.10;0.10;;;3.00;99.90;;;;;;5069867;28;20084;-84
2023/04/14 06:17:42;;;;;;;0.00;0.00;;;3.30;99.90;;;;;;5067371;28;20056;-84
2023/04/14 06:20:08;;;;;;;0.00;0.00;;;3.60;99.90;;;;;;5068498;28;20060;-85
2023/04/14 06:22:34;;;;;;;0.00;0.00;;;4.10;99.90;;;;;;5068538;28;20094;-84
2023/04/14 06:25:00;;;;;;;0.00;0.00;;;4.90;99.90;;;;;;5067198;28;20072;-84
2023/04/14 06:27:26;;;;;;;0.65;0.32;;;5.90;99.90;;;;;;5068189;28;20068;-85
2023/04/14 06:29:52;;;;;;;0.00;0.00;;;6.30;99.90;;;;;;5068469;28;20052;-86
2023/04/14 06:32:21;;;;;;;0.00;0.00;;;6.80;99.90;;;;;;5068083;28;20120;-85
2023/04/14 06:34:47;;;;;;;0.00;0.00;;;7.30;88.00;;;;;;5066565;28;20125;-86
2023/04/14 06:37:13;;;;;;;0.15;0.15;;;8.10;1.00;;;;;;5068530;28;20048;-86
2023/04/14 06:39:39;;;;;;;0.00;0.00;;;8.60;99.90;;;;;;5068975;28;20439;-86
2023/04/14 06:42:05;;;;;;;0.90;0.40;;;9.30;99.90;;;;;;5068614;28;20079;-86
2023/04/14 06:44:34;;;;;;;0.65;0.47;;;10.10;99.90;;;;;;5067263;28;20445;-86
2023/04/14 06:47:00;;;;;;;0.30;0.20;;;10.80;1.00;;;;;;5068541;28;20105;-86
2023/04/14 06:49:25;;;;;;;1.65;0.45;;;11.70;99.90;;;;;;5068222;28;20052;-86
2023/04/14 06:51:51;;;;;;;0.13;0.10;;;12.30;99.90;;;;;;5067678;28;20062;-85
2023/04/14 06:54:17;;;;;;;1.13;0.57;;;12.70;1.00;;;;;;5067228;28;20052;-86
2023/04/14 06:56:42;;;;;;;0.63;0.22;;;12.40;99.90;;;;;;5066949;28;20052;-85
2023/04/14 06:59:08;;;;;;;0.38;0.22;;;12.60;99.90;;;;;;5055578;28;20498;-86
2023/04/14 07:01:33;;;;;;;1.63;0.60;;;14.20;99.90;;;;;;5057865;28;20056;-86
2023/04/14 07:04:02;;;;;;;0.30;0.30;;;14.00;99.90;;;;;;5047895;28;20055;-86
2023/04/14 07:06:27;;;;;;;0.65;0.35;;;15.40;99.90;;;;;;5048349;28;20474;-86
2023/04/14 07:08:54;;;;;;;0.00;0.00;;;14.80;1.00;;;;;;5047822;28;20048;-86
2023/04/14 07:11:20;;;;;;;0.13;0.13;;;14.90;99.90;;;;;;5047377;28;20053;-86
2023/04/14 07:13:46;;;;;;;0.20;0.20;;;16.80;99.90;;;;;;5070987;28;20445;-86
2023/04/14 07:16:11;;;;;;;0.10;0.10;;;15.60;99.90;;;;;;5060395;28;20053;-86
2023/04/14 07:18:37;;;;;;;0.40;0.32;;;16.10;99.90;;;;;;5071891;28;20041;-89
2023/04/14 07:21:03;;;;;;;0.10;0.10;;;16.40;99.90;;;;;;5072778;28;20079;-88
2023/04/14 07:23:29;;;;;;;0.57;0.32;;;16.70;99.90;;;;;;5072949;28;20055;-87
2023/04/14 07:25:58;;;;;;;0.43;0.22;;;16.10;99.90;;;;;;5071298;28;20044;-87
2023/04/14 07:28:25;;;;;;;1.25;1.15;;;17.10;99.90;;;;;;5058452;28;20096;-87
2023/04/14 07:30:51;;;;;;;0.00;0.00;;;15.60;99.90;;;;;;5047509;28;20060;-88
2023/04/14 07:33:21;;;;;;;0.15;0.15;;;16.80;99.90;;;;;;5046445;28;20095;-87
2023/04/14 07:35:53;;;;;;;0.43;0.35;;;18.00;99.90;;;;;;5047782;28;20045;-87
2023/04/14 07:38:21;;;;;;;0.10;0.10;;;17.90;99.90;;;;;;5046382;28;20048;-87
2023/04/14 07:40:47;;;;;;;0.10;0.10;;;18.60;99.90;;;;;;5046887;28;20045;-88
2023/04/14 07:43:13;;;;;;;0.47;0.45;;;18.50;99.90;;;;;;5046776;28;20047;-88
2023/04/14 07:45:38;;;;;;;0.57;0.52;;;17.40;99.90;;;;;;5047001;28;20179;-88
2023/04/14 07:48:04;;;;;;;0.10;0.10;;;16.30;99.90;;;;;;5045800;28;20060;-87
2023/04/14 07:50:30;;;;;;;0.63;0.55;;;15.90;99.90;;;;;;5046554;28;20052;-87
2023/04/14 07:52:58;;;;;;;1.60;0.43;;;16.90;99.90;;;;;;5048345;28;20041;-87
2023/04/14 07:55:24;;;;;;;0.00;0.00;;;16.60;99.90;;;;;;5046390;28;20490;-88
2023/04/14 07:57:50;;;;;;;3.95;1.38;;;17.60;99.90;;;;;;5045997;28;20048;-88
2023/04/14 08:00:16;;;;;;;0.00;0.00;;;18.10;99.90;;;;;;5044961;28;20524;-87
2023/04/14 08:02:42;;;;;;;0.00;0.00;;;18.80;99.90;;;;;;5045634;28;20045;-86
2023/04/14 08:05:08;;;;;;;0.65;0.20;;;18.70;99.90;;;;;;5045509;28;20049;-86
2023/04/14 08:07:33;;;;;;;0.30;0.20;;;19.00;99.90;;;;;;5045668;28;20053;-86
2023/04/14 08:09:59;;;;;;;2.60;1.20;;;18.10;99.90;;;;;;5046770;28;20048;-87
2023/04/14 08:12:25;;;;;;;0.13;0.13;;;17.00;99.90;;;;;;5046441;28;20072;-87
2023/04/14 08:15:03;;;;;;;0.30;0.30;;;16.30;99.90;;;;;;5049490;28;20086;-86
2023/04/14 08:17:37;;;;;;;0.47;0.35;;;16.30;99.90;;;;;;5048151;28;20057;-87
2023/04/14 08:20:07;;;;;;;0.30;0.30;;;16.60;99.90;;;;;;5064294;28;20048;-87
2023/04/14 08:22:33;;;;;;;3.75;1.50;;;16.60;99.90;;;;;;5047526;28;20422;-87
2023/04/14 08:24:59;;;;;;;0.10;0.10;;;16.60;99.90;;;;;;5065607;28;20032;-87
2023/04/14 08:27:25;;;;;;;0.25;0.25;;;16.20;99.90;;;;;;5065152;28;20098;-87
2023/04/14 08:29:50;;;;;;;1.35;0.73;;;16.60;99.90;;;;;;5066902;28;20068;-86
2023/04/14 08:32:19;;;;;;;2.15;0.63;;;17.30;99.90;;;;;;5068734;28;20044;-87
2023/04/14 08:34:48;;;;;;;0.52;0.30;;;16.30;99.90;;;;;;5068279;28;20063;-87
2023/04/14 08:37:13;;;;;;;1.67;0.60;;;16.50;99.90;;;;;;5065570;28;20444;-87
2023/04/14 08:39:39;;;;;;;2.72;1.40;;;17.70;99.90;;;;;;5056431;28;20045;-87
2023/04/14 08:42:06;;;;;;;0.00;0.00;;;17.10;99.90;;;;;;5053263;28;20045;-88
2023/04/14 08:44:31;;;;;;;0.15;0.15;;;17.10;99.90;;;;;;5049702;28;20080;-88
2023/04/14 08:46:58;;;;;;;0.05;0.05;;;19.30;99.90;;;;;;5047621;28;20118;-86
2023/04/14 08:49:43;;;;;;;0.80;0.22;;;18.40;99.90;;;;;;5030868;28;20040;-87
2023/04/14 08:52:13;;;;;;;0.75;0.43;;;17.20;99.90;;;;;;5048873;28;20104;-87
2023/04/14 08:54:42;;;;;;;0.90;0.47;;;16.40;99.90;;;;;;5050684;28;20045;-87
2023/04/14 08:57:10;;;;;;;1.92;0.63;;;16.00;99.90;;;;;;5047146;28;20053;-87
2023/04/14 08:59:37;;;;;;;5.18;1.08;;;16.80;99.90;;;;;;5055647;28;20508;-87
2023/04/14 09:02:07;;;;;;;0.13;0.13;;;17.00;99.90;;;;;;5064615;28;20040;-87
2023/04/14 09:04:36;;;;;;;0.00;0.00;;;16.80;99.90;;;;;;5067135;28;20391;-86
2023/04/14 09:07:04;;;;;;;0.20;0.20;;;17.40;99.90;;;;;;5068470;28;20053;-87
2023/04/14 09:09:30;;;;;;;0.90;0.32;;;16.30;99.90;;;;;;5061434;28;20044;-87
2023/04/14 09:11:57;;;;;;;0.00;0.00;;;17.10;99.90;;;;;;5070517;28;20044;-87
2023/04/14 09:14:23;;;;;;;0.10;0.10;;;17.00;99.90;;;;;;5091152;28;20041;-87
2023/04/14 09:16:52;;;;;;;1.45;0.05;;;17.00;99.90;;;;;;5089693;28;20512;-87
2023/04/14 09:19:20;;;;;;;0.15;0.15;;;18.30;99.90;;;;;;5093417;28;20108;-87
2023/04/14 09:21:46;;;;;;;0.20;0.20;;;17.60;99.90;;;;;;5091053;28;20056;-87
2023/04/14 09:24:13;;;;;;;0.17;0.17;;;17.10;99.90;;;;;;5090598;28;20068;-87
2023/04/14 09:26:39;;;;;;;0.52;0.30;;;16.60;99.90;;;;;;5087026;28;20130;-87
2023/04/14 09:29:05;;;;;;;0.68;0.20;;;16.90;99.90;;;;;;5065289;28;20048;-86
2023/04/14 09:31:31;;;;;;;0.10;0.10;;;17.50;99.90;;;;;;5071156;28;20048;-87
2023/04/14 09:34:13;;;;;;;1.23;0.80;;;18.30;99.90;;;;;;5067884;28;20084;-88
2023/04/14 09:36:40;;;;;;;0.32;0.32;;;18.40;99.90;;;;;;5067526;28;20547;-88
2023/04/14 09:39:17;;;;;;;0.03;0.03;;;19.00;99.90;;;;;;5068934;28;20488;-88
2023/04/14 09:41:46;;;;;;;0.80;0.63;;;19.20;99.90;;;;;;5067615;28;20051;-88
2023/04/14 09:44:12;;;;;;;0.00;0.00;;;18.70;99.90;;;;;;5067662;28;20045;-88
2023/04/14 09:47:02;;;;;;;1.15;0.52;;;18.90;99.90;;;;;;5068940;28;20105;-89
2023/04/14 09:49:28;;;;;;;0.77;0.45;;;18.10;99.90;;;;;;5050843;28;20098;-88
2023/04/14 09:52:03;;;;;;;1.80;0.63;;;17.80;99.90;;;;;;5050472;28;20041;-88
2023/04/14 09:54:29;;;;;;;0.00;0.00;;;17.10;99.90;;;;;;5066232;28;20060;-87
2023/04/14 09:56:56;;;;;;;0.20;0.13;;;16.70;91.70;;;;;;5066187;28;20487;-86
2023/04/14 09:59:36;;;;;;;0.00;0.00;;;15.80;82.00;;;;;;5064916;28;20048;-87
2023/04/14 10:02:07;;;;;;;0.08;0.08;;;15.50;90.80;;;;;;5066385;28;20040;-87
2023/04/14 10:04:33;;;;;;;0.00;0.00;;;15.30;91.20;;;;;;5067757;28;20048;-88
2023/04/14 10:07:00;;;;;;;0.13;0.03;;;15.00;74.30;;;;;;5071827;28;20020;-88
2023/04/14 10:09:27;;;;;;;0.88;0.60;;;15.00;64.70;;;;;;5090766;28;20020;-87
2023/04/14 10:12:13;;;;;;;0.32;0.32;;;16.10;99.90;;;;;;5089151;28;20063;-87
2023/04/14 10:14:41;;;;;;;0.65;0.57;;;15.10;73.60;;;;;;5092649;28;20039;-88
2023/04/14 10:17:07;;;;;;;4.65;1.45;;;14.90;75.10;;;;;;5075438;28;20045;-86
2023/04/14 10:19:34;;;;;;;0.98;0.38;;;14.80;92.70;;;;;;5092023;28;20291;-87
2023/04/14 10:21:59;;;;;;;0.00;0.00;;;14.40;67.70;;;;;;5075990;28;20066;-87
2023/04/14 10:24:25;;;;;;;2.40;0.90;;;14.60;99.90;;;;;;5092872;28;20076;-87
2023/04/14 10:26:52;;;;;;;0.00;0.00;;;14.60;74.10;;;;;;5092007;28;20040;-89
2023/04/14 10:29:22;;;;;;;0.10;0.10;;;15.10;92.90;;;;;;5080241;28;20055;-88
2023/04/14 10:31:53;;;;;;;0.45;0.40;;;15.40;98.60;;;;;;5066609;28;20155;-88
2023/04/14 10:34:21;;;;;;;0.05;0.05;;;15.50;99.90;;;;;;5066514;28;20094;-87
2023/04/14 10:36:47;;;;;;;0.10;0.10;;;15.20;99.90;;;;;;5070133;28;20374;-88
2023/04/14 10:39:23;;;;;;;0.20;0.20;;;15.40;97.60;;;;;;5089411;28;20105;-87
2023/04/14 10:41:51;;;;;;;1.40;0.57;;;15.30;92.00;;;;;;5086082;28;20226;-88
2023/04/14 10:44:31;;;;;;;0.10;0.10;;;16.60;98.00;;;;;;5086519;28;20044;-88
2023/04/14 10:47:00;;;;;;;3.92;0.90;;;15.50;96.20;;;;;;5085923;28;20027;-87
2023/04/14 10:49:34;;;;;;;0.50;0.47;;;16.10;99.90;;;;;;5080917;28;20037;-87
2023/04/14 10:52:02;;;;;;;0.20;0.15;;;15.60;93.00;;;;;;5069983;28;20044;-87
2023/04/14 10:54:52;;;;;;;0.25;0.10;;;15.60;94.40;;;;;;5072083;28;20067;-89
2023/04/14 10:57:26;;;;;;;4.50;0.90;;;16.00;99.90;;;;;;5073306;28;20052;-89
2023/04/14 10:59:59;;;;;;;5.30;0.43;;;16.70;99.90;;;;;;5071915;28;20462;-89
2023/04/14 11:02:29;;;;;;;0.17;0.17;;;17.50;99.90;;;;;;5070855;28;20105;-89
2023/04/14 11:05:10;;;;;;;0.17;0.17;;;17.30;99.90;;;;;;5069990;28;20048;-88
2023/04/14 11:07:47;;;;;;;0.70;0.55;;;17.20;99.90;;;;;;5069746;28;20077;-87
2023/04/14 11:10:22;;;;;;;0.10;0.10;;;16.50;92.70;;;;;;5069095;28;20203;-88
2023/04/14 11:12:56;;;;;;;0.20;0.20;;;17.50;98.80;;;;;;5052062;28;20053;-88
2023/04/14 11:15:22;;;;;;;1.30;1.08;;;16.70;97.90;;;;;;5070963;28;20494;-88
2023/04/14 11:17:48;;;;;;;0.20;0.20;;;16.10;77.50;;;;;;5067565;28;20067;-87
2023/04/14 11:20:16;;;;;;;0.75;0.30;;;16.80;90.30;;;;;;5067144;28;20135;-88
2023/04/14 11:22:48;;;;;;;0.00;0.00;;;16.80;95.20;;;;;;5068775;28;20044;-88
2023/04/14 11:25:15;;;;;;;0.08;0.08;;;17.70;99.90;;;;;;5069788;28;20427;-88
2023/04/14 11:27:43;;;;;;;0.00;0.00;;;16.60;89.70;;;;;;5069183;28;20064;-88
2023/04/14 11:30:16;;;;;;;0.38;0.22;;;17.80;90.70;;;;;;5068733;28;20513;-88
2023/04/14 11:32:53;;;;;;;2.10;0.73;;;17.70;99.90;;;;;;5069228;28;20543;-88
2023/04/14 11:35:23;;;;;;;2.03;0.75;;;18.30;99.90;;;;;;5050894;28;20052;-89
2023/04/14 11:37:53;;;;;;;0.75;0.28;;;18.00;99.20;;;;;;5069009;28;20051;-89
2023/04/14 11:40:20;;;;;;;0.32;0.30;;;17.80;94.20;;;;;;5069029;28;20080;-88
2023/04/14 11:42:53;;;;;;;0.30;0.30;;;17.50;87.30;;;;;;5058186;28;20195;-89
2023/04/14 11:45:20;;;;;;;1.65;0.30;;;18.00;93.40;;;;;;5047676;28;20525;-89
2023/04/14 11:48:05;;;;;;;0.13;0.13;;;17.40;91.20;;;;;;5047159;28;20036;-89
2023/04/14 11:50:34;;;;;;;0.98;0.88;;;18.10;96.90;;;;;;5047016;28;20117;-88
2023/04/14 11:53:01;;;;;;;0.00;0.00;;;17.30;71.00;;;;;;5048551;28;20041;-88
2023/04/14 11:55:28;;;;;;;0.00;0.00;;;16.40;42.20;;;;;;5048791;28;20049;-88
2023/04/14 11:57:54;;;;;;;0.00;0.00;;;15.90;29.80;;;;;;5049613;28;20120;-89
2023/04/14 12:00:20;;;;;;;0.45;0.45;;;15.60;16.00;;;;;;5046827;28;20053;-88
2023/04/14 12:02:46;;;;;;;0.38;0.32;;;15.50;11.10;;;;;;5047193;28;20045;-89
2023/04/14 12:05:24;;;;;;;0.10;0.10;;;15.40;10.10;;;;;;5052215;28;20490;-87
2023/04/14 12:07:50;;;;;;;1.27;0.85;;;15.40;11.60;;;;;;5038400;28;20059;-88
2023/04/14 12:10:16;;;;;;;0.10;0.10;;;16.80;14.10;;;;;;5067457;28;20056;-88
2023/04/14 12:12:42;;;;;;;0.10;0.10;;;15.30;14.80;;;;;;5068375;28;20426;-88
2023/04/14 12:15:08;;;;;;;0.20;0.20;;;15.10;7.90;;;;;;5066077;28;20052;-87
2023/04/14 12:17:35;;;;;;;0.00;0.00;;;15.20;8.30;;;;;;5066029;28;20102;-88
2023/04/14 12:20:04;;;;;;;12.75;0.43;;;15.30;16.60;;;;;;5065747;28;20158;-87
2023/04/14 12:22:30;;;;;;;0.30;0.30;;;15.40;10.10;;;;;;5051997;28;20095;-87
2023/04/14 12:24:56;;;;;;;1.63;0.38;;;15.60;14.20;;;;;;5046553;28;20398;-86
2023/04/14 12:27:23;;;;;;;0.20;0.10;;;15.40;8.30;;;;;;5066503;28;20048;-87
2023/04/14 12:29:52;;;;;;;0.00;0.00;;;16.30;33.00;;;;;;5065787;28;20048;-88
2023/04/14 12:32:21;;;;;;;0.17;0.13;;;16.30;67.30;;;;;;5065032;28;20127;-87
2023/04/14 12:34:56;;;;;;;0.00;0.00;;;16.60;34.90;;;;;;5066436;28;20124;-87
2023/04/14 12:37:26;;;;;;;0.10;0.05;;;16.10;17.20;;;;;;5066782;28;20049;-87
2023/04/14 12:40:00;;;;;;;1.17;0.57;;;15.40;7.60;;;;;;5047831;28;20052;-87
2023/04/14 12:42:27;;;;;;;2.65;0.52;;;15.20;1.00;;;;;;5064669;28;20059;-87
2023/04/14 12:45:02;;;;;;;7.72;1.00;;;16.40;8.10;;;;;;5064569;28;20063;-86
2023/04/14 12:47:35;;;;;;;0.77;0.35;;;16.10;23.70;;;;;;5061150;28;20399;-86
2023/04/14 12:50:31;;;;;;;1.48;0.45;;;16.70;24.90;;;;;;5066377;28;20041;-87
2023/04/14 12:52:58;;;;;;;13.00;1.65;;;16.20;20.60;;;;;;5047740;28;20379;-86
2023/04/14 12:55:29;;;;;;;2.63;0.57;;;16.20;1.90;;;;;;5061255;28;20052;-87
2023/04/14 12:57:56;;;;;;;0.00;0.00;;;15.50;3.10;;;;;;5065854;28;20096;-87
2023/04/14 13:00:26;;;;;;;3.60;1.35;;;16.50;31.20;;;;;;5064438;28;20056;-87